Time;durP1;ratioP1;P1;durP2;ratioP2;P2;SDS_P1;SDS_P2;PMS_P1;PMS_P2;Temp;Humidity;BMP_temperature;BMP_pressure;BME280_temperature;BME280_humidity;BME280_pressure;Samples;Min_cycle;Max_cycle;Signal;HPM_P1;HPM_P2
2023/10/18 00:00:49;;;;;;;;;;;;;;;3.59;100.00;99160.79;136746;1272;24389;-81
2023/10/18 00:04:14;;;;;;;;;;;;;;;3.54;100.00;99160.59;136554;1272;22544;-81
2023/10/18 00:07:20;;;;;;;;;;;;;;;3.48;100.00;99159.10;136564;1272;22507;-81
2023/10/18 00:10:22;;;;;;;;;;;;;;;3.36;100.00;99154.77;136088;1272;22507;-81
2023/10/18 00:13:25;;;;;;;;;;;;;;;3.27;100.00;99153.63;136067;1272;22508;-83
2023/10/18 00:16:27;;;;;;;;;;;;;;;3.16;100.00;99153.86;135872;1272;22617;-82
2023/10/18 00:19:30;;;;;;;;;;;;;;;3.07;100.00;99161.69;135806;1272;22538;-83
2023/10/18 00:22:32;;;;;;;;;;;;;;;2.96;100.00;99160.82;135726;1272;22494;-82
2023/10/18 00:25:35;;;;;;;;;;;;;;;2.80;100.00;99161.24;135701;1272;22509;-82
2023/10/18 00:28:38;;;;;;;;;;;;;;;2.65;100.00;99158.46;135712;1272;22516;-83
2023/10/18 00:31:41;;;;;;;;;;;;;;;2.53;100.00;99158.77;135805;1272;22614;-82
2023/10/18 00:34:43;;;;;;;;;;;;;;;2.43;100.00;99158.10;135704;1272;22511;-84
2023/10/18 00:37:46;;;;;;;;;;;;;;;2.32;100.00;99161.66;135888;1272;22617;-82
2023/10/18 00:40:50;;;;;;;;;;;;;;;2.21;100.00;99161.45;135790;1272;22532;-84
2023/10/18 00:43:56;;;;;;;;;;;;;;;2.14;100.00;99161.96;135732;1272;22494;-83
2023/10/18 00:46:59;;;;;;;;;;;;;;;2.07;100.00;99159.23;135749;1262;22614;-84
2023/10/18 00:50:02;;;;;;;;;;;;;;;2.00;100.00;99160.23;135709;1272;22905;-84
2023/10/18 00:53:06;;;;;;;;;;;;;;;1.94;100.00;99157.52;135700;1272;22518;-84
2023/10/18 00:56:11;;;;;;;;;;;;;;;1.86;100.00;99158.19;135794;1272;22504;-82
2023/10/18 00:59:21;;;;;;;;;;;;;;;1.81;100.00;99159.95;135834;1272;22965;-85
2023/10/18 01:02:28;;;;;;;;;;;;;;;1.71;100.00;99155.64;135719;1272;22512;-85
2023/10/18 01:05:35;;;;;;;;;;;;;;;1.63;100.00;99155.90;135639;1272;22521;-84
2023/10/18 01:08:40;;;;;;;;;;;;;;;1.56;100.00;99156.08;135685;1272;22532;-84
2023/10/18 01:11:45;;;;;;;;;;;;;;;1.48;100.00;99154.27;135696;1272;22509;-85
2023/10/18 01:14:49;;;;;;;;;;;;;;;1.42;100.00;99154.95;135826;1272;22518;-83
2023/10/18 01:17:54;;;;;;;;;;;;;;;1.36;100.00;99153.27;135928;1272;22464;-85
2023/10/18 01:20:57;;;;;;;;;;;;;;;1.32;100.00;99156.13;135758;1272;22555;-84
2023/10/18 01:24:00;;;;;;;;;;;;;;;1.27;100.00;99156.07;135789;1272;22568;-84
2023/10/18 01:27:03;;;;;;;;;;;;;;;1.21;100.00;99155.07;135733;1272;22512;-84
2023/10/18 01:30:07;;;;;;;;;;;;;;;1.13;100.00;99149.30;135785;1272;22545;-84
2023/10/18 01:33:14;;;;;;;;;;;;;;;1.06;100.00;99143.29;135857;1272;22527;-84
2023/10/18 01:36:16;;;;;;;;;;;;;;;1.05;100.00;99142.04;135804;1272;22762;-85
2023/10/18 01:39:22;;;;;;;;;;;;;;;0.99;100.00;99134.54;135728;1272;22537;-85
2023/10/18 01:42:25;;;;;;;;;;;;;;;0.91;100.00;99132.39;135724;1272;24285;-83
2023/10/18 01:45:29;;;;;;;;;;;;;;;0.86;100.00;99128.79;135754;1272;23500;-84
2023/10/18 01:48:31;;;;;;;;;;;;;;;0.80;100.00;99128.33;135683;1272;22519;-84
2023/10/18 01:51:34;;;;;;;;;;;;;;;0.78;100.00;99135.70;135734;1272;22621;-84
2023/10/18 01:54:36;;;;;;;;;;;;;;;0.72;100.00;99133.88;135648;1272;25299;-85
2023/10/18 01:57:43;;;;;;;;;;;;;;;0.68;100.00;99127.79;135707;1272;22512;-85
2023/10/18 02:00:47;;;;;;;;;;;;;;;0.63;100.00;99127.92;135691;1272;22519;-81
2023/10/18 02:03:50;;;;;;;;;;;;;;;0.59;100.00;99129.09;135696;1272;22516;-82
2023/10/18 02:06:55;;;;;;;;;;;;;;;0.54;100.00;99125.88;135690;1272;22519;-84
2023/10/18 02:09:58;;;;;;;;;;;;;;;0.49;100.00;99122.35;135710;1272;22518;-84
2023/10/18 02:13:01;;;;;;;;;;;;;;;0.42;100.00;99123.45;135709;1269;22541;-85
2023/10/18 02:16:06;;;;;;;;;;;;;;;0.37;100.00;99122.81;135677;1272;22528;-86
2023/10/18 02:19:09;;;;;;;;;;;;;;;0.33;100.00;99125.19;135731;1272;24205;-88
2023/10/18 02:22:13;;;;;;;;;;;;;;;0.31;100.00;99130.91;135707;1272;22510;-84
2023/10/18 02:25:29;;;;;;;;;;;;;;;0.28;100.00;99121.50;135819;1272;22518;-83
2023/10/18 02:28:32;;;;;;;;;;;;;;;0.22;100.00;99124.77;135900;1263;22731;-84
2023/10/18 02:31:34;;;;;;;;;;;;;;;0.18;100.00;99122.63;135756;1272;22532;-84
2023/10/18 02:34:38;;;;;;;;;;;;;;;0.14;100.00;99124.10;135791;1272;22589;-83
2023/10/18 02:37:40;;;;;;;;;;;;;;;0.09;100.00;99118.35;135655;1272;22989;-86
2023/10/18 02:40:43;;;;;;;;;;;;;;;0.08;100.00;99117.40;135772;1272;25217;-85
2023/10/18 02:43:48;;;;;;;;;;;;;;;0.04;100.00;99115.30;135711;1272;22519;-84
2023/10/18 02:46:52;;;;;;;;;;;;;;;0.02;100.00;99118.41;135822;1270;22519;-84
2023/10/18 02:49:55;;;;;;;;;;;;;;;-0.03;100.00;99117.82;135798;1272;22618;-84
2023/10/18 02:52:57;;;;;;;;;;;;;;;-0.08;100.00;99117.89;136508;1272;22539;-82
2023/10/18 02:56:00;;;;;;;;;;;;;;;-0.09;100.00;99113.19;136866;1272;22699;-82
2023/10/18 02:59:07;;;;;;;;;;;;;;;-0.09;100.00;99111.78;137326;1272;22733;-82
2023/10/18 03:02:13;;;;;;;;;;;;;;;-0.09;100.00;99112.52;137255;1272;22555;-84
2023/10/18 03:05:18;;;;;;;;;;;;;;;-0.08;100.00;99111.39;136797;1272;24211;-82
2023/10/18 03:08:21;;;;;;;;;;;;;;;-0.07;100.00;99108.02;135809;1272;22528;-84
2023/10/18 03:11:25;;;;;;;;;;;;;;;-0.08;100.00;99110.49;135831;1270;22618;-81
2023/10/18 03:14:39;;;;;;;;;;;;;;;-0.09;100.00;99120.70;135842;1272;22542;-82
2023/10/18 03:17:42;;;;;;;;;;;;;;;-0.14;100.00;99117.00;136150;1272;22599;-82
2023/10/18 03:20:44;;;;;;;;;;;;;;;-0.17;100.00;99104.83;136245;1272;22516;-82
2023/10/18 03:23:46;;;;;;;;;;;;;;;-0.20;100.00;99105.54;136133;1272;24530;-82
2023/10/18 03:26:51;;;;;;;;;;;;;;;-0.20;100.00;99107.41;136150;1272;22527;-81
2023/10/18 03:29:56;;;;;;;;;;;;;;;-0.20;100.00;99107.59;136033;1272;22532;-85
2023/10/18 03:33:00;;;;;;;;;;;;;;;-0.26;100.00;99110.14;136128;1272;22539;-80
2023/10/18 03:36:17;;;;;;;;;;;;;;;-0.29;100.00;99106.03;135956;1272;24236;-82
2023/10/18 03:39:20;;;;;;;;;;;;;;;-0.33;100.00;99111.13;136282;1272;22531;-82
2023/10/18 03:42:32;;;;;;;;;;;;;;;-0.36;100.00;99108.17;136173;1272;22570;-81
2023/10/18 03:46:07;;;;;;;;;;;;;;;-0.38;100.00;99102.42;136000;1272;22512;-83
2023/10/18 03:49:01;;;;;;;;;;;;;;;-0.39;100.00;99098.27;135985;1272;25330;-82
2023/10/18 03:52:16;;;;;;;;;;;;;;;0.25;100.00;99096.30;136083;1272;22512;-83
2023/10/18 03:55:23;;;;;;;;;;;;;;;0.87;100.00;99095.11;136183;1272;22955;-82
2023/10/18 03:58:26;;;;;;;;;;;;;;;0.62;100.00;99087.92;136155;1272;22910;-82
2023/10/18 04:01:39;;;;;;;;;;;;;;;0.40;100.00;99084.50;136134;1272;22513;-82
2023/10/18 04:04:44;;;;;;;;;;;;;;;0.23;100.00;99086.15;136148;1272;23027;-83
2023/10/18 04:07:47;;;;;;;;;;;;;;;0.11;100.00;99089.20;136405;1272;22624;-82
2023/10/18 04:10:49;;;;;;;;;;;;;;;0.06;100.00;99092.81;136300;1272;22628;-83
2023/10/18 04:13:52;;;;;;;;;;;;;;;-0.02;100.00;99081.76;136444;1272;22529;-83
2023/10/18 04:16:57;;;;;;;;;;;;;;;-0.10;100.00;99078.59;136324;1272;22509;-83
2023/10/18 04:20:00;;;;;;;;;;;;;;;-0.16;100.00;99079.58;136297;1272;25233;-82
2023/10/18 04:23:12;;;;;;;;;;;;;;;-0.24;100.00;99071.62;136599;1272;22542;-83
2023/10/18 04:26:18;;;;;;;;;;;;;;;-0.30;100.00;99070.76;136609;1272;22566;-82
2023/10/18 04:29:39;;;;;;;;;;;;;;;-0.32;100.00;99076.27;137013;1272;22533;-83
2023/10/18 04:32:42;;;;;;;;;;;;;;;-0.33;100.00;99073.67;137095;1272;22887;-83
2023/10/18 04:35:45;;;;;;;;;;;;;;;-0.36;100.00;99078.77;137120;1272;22993;-83
2023/10/18 04:38:49;;;;;;;;;;;;;;;-0.37;100.00;99084.88;136867;1272;22563;-81
2023/10/18 04:41:52;;;;;;;;;;;;;;;-0.37;100.00;99084.35;136854;1272;22550;-83
2023/10/18 04:44:56;;;;;;;;;;;;;;;-0.45;100.00;99085.42;136715;1272;22524;-83
2023/10/18 04:48:06;;;;;;;;;;;;;;;-0.50;100.00;99086.35;136636;1272;22631;-84
2023/10/18 04:51:08;;;;;;;;;;;;;;;-0.51;100.00;99080.95;136671;1272;22514;-80
2023/10/18 04:54:11;;;;;;;;;;;;;;;-0.56;100.00;99076.40;136813;1272;22592;-83
2023/10/18 04:57:15;;;;;;;;;;;;;;;-0.58;100.00;99071.83;136741;1272;22526;-83
2023/10/18 05:00:39;;;;;;;;;;;;;;;-0.59;100.00;99076.52;136423;1272;23619;-83
2023/10/18 05:03:44;;;;;;;;;;;;;;;-0.60;100.00;99077.18;136539;1272;22622;-83
2023/10/18 05:06:53;;;;;;;;;;;;;;;-0.60;100.00;99079.56;136384;1272;23111;-82
2023/10/18 05:09:56;;;;;;;;;;;;;;;-0.59;100.00;99079.81;136645;1272;22541;-81
2023/10/18 05:13:10;;;;;;;;;;;;;;;-0.55;100.00;99071.80;136793;1272;22544;-83
2023/10/18 05:16:16;;;;;;;;;;;;;;;-0.52;100.00;99070.66;136906;1272;22526;-83
2023/10/18 05:19:28;;;;;;;;;;;;;;;-0.53;100.00;99069.19;136894;1272;22550;-83
2023/10/18 05:22:35;;;;;;;;;;;;;;;-0.56;100.00;99072.65;136784;1272;22527;-82
2023/10/18 05:25:45;;;;;;;;;;;;;;;-0.57;100.00;99067.42;136861;1264;22519;-83
2023/10/18 05:28:49;;;;;;;;;;;;;;;-0.55;100.00;99064.15;136668;1263;22549;-82
2023/10/18 05:32:06;;;;;;;;;;;;;;;-0.49;100.00;99059.23;136463;1272;24372;-82
2023/10/18 05:35:21;;;;;;;;;;;;;;;-0.41;100.00;99067.02;136615;1272;22538;-82
2023/10/18 05:38:48;;;;;;;;;;;;;;;-0.42;100.00;99068.88;136869;1272;22527;-83
2023/10/18 05:41:51;;;;;;;;;;;;;;;-0.37;100.00;99070.50;137161;1272;22581;-82
2023/10/18 05:44:54;;;;;;;;;;;;;;;-0.35;100.00;99072.15;137417;1272;22562;-81
2023/10/18 05:47:56;;;;;;;;;;;;;;;-0.33;100.00;99075.05;137212;1267;22535;-82
2023/10/18 05:51:04;;;;;;;;;;;;;;;-0.25;100.00;99077.73;136956;1272;22997;-80
2023/10/18 05:54:06;;;;;;;;;;;;;;;-0.13;100.00;99076.00;136688;1272;22668;-82
2023/10/18 05:57:15;;;;;;;;;;;;;;;0.02;100.00;99078.56;136603;1272;22597;-82
2023/10/18 06:00:18;;;;;;;;;;;;;;;0.19;100.00;99082.80;136712;1272;22535;-79
2023/10/18 06:03:22;;;;;;;;;;;;;;;0.32;100.00;99084.02;135228;1261;24984;-78
2023/10/18 06:06:25;;;;;;;;;;;;;;;0.47;100.00;99080.08;135276;1272;24405;-79
2023/10/18 06:09:28;;;;;;;;;;;;;;;0.62;100.00;99086.75;135298;1272;22525;-79
2023/10/18 06:12:31;;;;;;;;;;;;;;;0.78;100.00;99094.10;136650;1272;22540;-79
2023/10/18 06:15:38;;;;;;;;;;;;;;;0.88;100.00;99099.80;135618;1272;22524;-80
2023/10/18 06:18:41;;;;;;;;;;;;;;;0.96;100.00;99097.86;136471;1272;22544;-80
2023/10/18 06:21:57;;;;;;;;;;;;;;;1.04;100.00;99100.16;136658;1272;22556;-81
2023/10/18 06:25:03;;;;;;;;;;;;;;;1.09;100.00;99099.58;136535;1272;22539;-81
2023/10/18 06:28:08;;;;;;;;;;;;;;;1.19;100.00;99100.64;136745;1267;22593;-81
2023/10/18 06:31:10;;;;;;;;;;;;;;;1.33;100.00;99099.11;137046;1267;22960;-81
2023/10/18 06:34:17;;;;;;;;;;;;;;;1.50;100.00;99091.59;136960;1272;22560;-83
2023/10/18 06:37:21;;;;;;;;;;;;;;;1.69;100.00;99096.36;136856;1272;22574;-81
2023/10/18 06:40:43;;;;;;;;;;;;;;;1.85;100.00;99093.09;136738;1257;22575;-77
2023/10/18 06:43:46;;;;;;;;;;;;;;;2.03;100.00;99093.61;134977;1272;22564;-79
2023/10/18 06:46:48;;;;;;;;;;;;;;;2.17;100.00;99092.27;136932;1272;22515;-79
2023/10/18 06:49:51;;;;;;;;;;;;;;;2.33;100.00;99092.67;135210;1272;25080;-78
2023/10/18 06:52:53;;;;;;;;;;;;;;;2.47;100.00;99090.42;135180;1272;22522;-81
2023/10/18 06:55:58;;;;;;;;;;;;;;;2.66;100.00;99088.27;136695;1272;22553;-80
2023/10/18 06:59:07;;;;;;;;;;;;;;;2.91;100.00;99083.20;136647;1272;22545;-80
2023/10/18 07:02:12;;;;;;;;;;;;;;;3.15;100.00;99083.44;136499;1272;22517;-82
2023/10/18 07:05:16;;;;;;;;;;;;;;;3.34;100.00;99079.48;136820;1272;22582;-81
2023/10/18 07:08:25;;;;;;;;;;;;;;;3.58;100.00;99078.67;136852;1272;22545;-81
2023/10/18 07:11:27;;;;;;;;;;;;;;;3.77;100.00;99074.33;135123;1272;22537;-79
2023/10/18 07:14:30;;;;;;;;;;;;;;;4.02;100.00;99066.57;135262;1272;22525;-82
2023/10/18 07:17:34;;;;;;;;;;;;;;;4.23;100.00;99060.03;136472;1272;22961;-81
2023/10/18 07:20:39;;;;;;;;;;;;;;;4.40;100.00;99059.73;135171;1272;22886;-80
2023/10/18 07:23:46;;;;;;;;;;;;;;;4.58;100.00;99056.10;136714;1258;22511;-80
2023/10/18 07:26:48;;;;;;;;;;;;;;;4.78;100.00;99052.89;136650;1272;22535;-79
2023/10/18 07:29:50;;;;;;;;;;;;;;;5.00;100.00;99045.12;135059;1272;203060;-79
2023/10/18 07:32:57;;;;;;;;;;;;;;;5.22;100.00;99043.17;135283;1272;23116;-82
2023/10/18 07:36:00;;;;;;;;;;;;;;;5.46;100.00;99041.62;136352;1272;22535;-80
2023/10/18 07:39:04;;;;;;;;;;;;;;;5.65;100.00;99040.40;136457;1272;22557;-81
2023/10/18 07:42:08;;;;;;;;;;;;;;;5.90;100.00;99036.25;136346;1272;22521;-81
2023/10/18 07:45:14;;;;;;;;;;;;;;;6.17;100.00;99034.75;136318;1272;22600;-80
2023/10/18 07:48:20;;;;;;;;;;;;;;;6.42;100.00;99029.67;136437;1272;22528;-80
2023/10/18 07:51:26;;;;;;;;;;;;;;;6.74;100.00;99019.23;135424;1272;23560;-81
2023/10/18 07:54:30;;;;;;;;;;;;;;;7.11;100.00;99021.05;135401;1272;22585;-81
2023/10/18 07:57:34;;;;;;;;;;;;;;;7.34;100.00;99019.23;136571;1272;22573;-80
2023/10/18 08:00:36;;;;;;;;;;;;;;;7.62;100.00;99015.85;136657;1272;22554;-80
2023/10/18 08:03:42;;;;;;;;;;;;;;;7.88;100.00;99012.55;135206;1272;22617;-81
2023/10/18 08:06:45;;;;;;;;;;;;;;;8.10;100.00;99013.45;136719;1272;22536;-81
2023/10/18 08:09:51;;;;;;;;;;;;;;;8.29;100.00;99009.05;136634;1272;22547;-77
2023/10/18 08:13:03;;;;;;;;;;;;;;;8.55;100.00;99011.75;135129;1272;25441;-82
2023/10/18 08:16:10;;;;;;;;;;;;;;;8.77;100.00;99015.41;136701;1272;22716;-82
2023/10/18 08:19:12;;;;;;;;;;;;;;;8.88;100.00;99019.98;136494;1272;22729;-82
2023/10/18 08:22:24;;;;;;;;;;;;;;;9.02;100.00;99024.63;136461;1272;22992;-83
2023/10/18 08:25:29;;;;;;;;;;;;;;;9.19;100.00;99023.92;136432;1272;22605;-81
2023/10/18 08:28:38;;;;;;;;;;;;;;;9.42;100.00;99017.77;136249;1272;22598;-82
2023/10/18 08:31:48;;;;;;;;;;;;;;;9.61;100.00;99011.89;137008;1272;22521;-82
2023/10/18 08:34:50;;;;;;;;;;;;;;;9.79;100.00;99008.39;137102;1272;22522;-80
2023/10/18 08:37:53;;;;;;;;;;;;;;;9.94;100.00;99007.45;136128;1272;22522;-81
2023/10/18 08:41:11;;;;;;;;;;;;;;;10.06;100.00;99008.86;136858;1272;22741;-80
2023/10/18 08:44:19;;;;;;;;;;;;;;;10.20;100.00;99018.86;136469;1272;24262;-81
2023/10/18 08:47:21;;;;;;;;;;;;;;;10.35;100.00;99021.54;135333;1272;22554;-81
2023/10/18 08:50:25;;;;;;;;;;;;;;;10.56;100.00;99020.48;136563;1272;22534;-81
2023/10/18 08:53:31;;;;;;;;;;;;;;;10.70;100.00;99016.70;135209;1272;22539;-80
2023/10/18 08:56:36;;;;;;;;;;;;;;;10.74;100.00;99016.58;135380;1272;22531;-80
2023/10/18 08:59:46;;;;;;;;;;;;;;;10.75;100.00;99009.63;135326;1272;26271;-81
2023/10/18 09:02:50;;;;;;;;;;;;;;;10.84;100.00;99010.09;135295;1272;22576;-81
2023/10/18 09:05:53;;;;;;;;;;;;;;;10.93;64.97;99002.72;136641;1272;22515;-78
2023/10/18 09:09:05;;;;;;;;;;;;;;;11.07;64.27;98998.20;135414;1272;25031;-80
2023/10/18 09:12:14;;;;;;;;;;;;;;;11.21;62.53;99002.71;135323;1272;22551;-74
2023/10/18 09:15:35;;;;;;;;;;;;;;;11.20;63.22;99001.66;135133;1272;22518;-80
2023/10/18 09:18:37;;;;;;;;;;;;;;;11.34;62.37;99004.83;135146;1272;23561;-79
2023/10/18 09:21:50;;;;;;;;;;;;;;;11.39;59.18;99003.84;135296;1272;22460;-80
2023/10/18 09:24:54;;;;;;;;;;;;;;;11.36;60.79;99007.45;136531;1272;22618;-79
2023/10/18 09:28:10;;;;;;;;;;;;;;;11.40;59.35;99006.81;135363;1272;22577;-80
2023/10/18 09:31:12;;;;;;;;;;;;;;;11.47;58.11;99009.33;135372;1272;22580;-80
2023/10/18 09:34:15;;;;;;;;;;;;;;;11.43;58.26;99009.80;135232;1272;23090;-79
2023/10/18 09:37:22;;;;;;;;;;;;;;;11.51;58.95;99002.91;135193;1272;22547;-80
2023/10/18 09:40:26;;;;;;;;;;;;;;;11.67;59.56;99002.55;135104;1272;22518;-79
2023/10/18 09:43:28;;;;;;;;;;;;;;;11.77;58.05;98998.83;135203;1272;22558;-80
2023/10/18 09:46:31;;;;;;;;;;;;;;;11.82;58.25;98990.54;136695;1272;22894;-79
2023/10/18 09:49:33;;;;;;;;;;;;;;;11.92;56.18;98985.90;136653;1272;22546;-80
2023/10/18 09:52:47;;;;;;;;;;;;;;;11.82;54.63;98981.11;136711;1272;22554;-81
2023/10/18 09:55:50;;;;;;;;;;;;;;;11.85;56.49;98977.83;136776;1272;22530;-80
2023/10/18 09:59:04;;;;;;;;;;;;;;;11.87;55.29;98975.23;135430;1270;23368;-80
2023/10/18 10:02:08;;;;;;;;;;;;;;;11.79;55.28;98975.84;136453;1272;22535;-81
2023/10/18 10:05:24;;;;;;;;;;;;;;;11.79;56.59;98972.88;135391;1272;27032;-81
2023/10/18 10:08:31;;;;;;;;;;;;;;;11.89;56.70;98973.67;136715;1272;25275;-81
2023/10/18 10:11:38;;;;;;;;;;;;;;;12.01;56.62;98966.45;136720;1272;22557;-78
2023/10/18 10:14:41;;;;;;;;;;;;;;;11.94;56.73;98963.95;135044;1272;22486;-83
2023/10/18 10:17:45;;;;;;;;;;;;;;;11.90;57.00;98965.83;136753;1273;25325;-83
2023/10/18 10:20:50;;;;;;;;;;;;;;;11.94;56.97;98964.13;136450;1270;22689;-82
2023/10/18 10:23:55;;;;;;;;;;;;;;;11.92;56.69;98963.06;135149;1273;22550;-82
2023/10/18 10:26:57;;;;;;;;;;;;;;;11.83;54.77;98957.92;136262;1272;22551;-82
2023/10/18 10:30:03;;;;;;;;;;;;;;;11.79;54.98;98955.98;136254;1273;22568;-83
2023/10/18 10:33:11;;;;;;;;;;;;;;;11.82;55.13;98949.20;136525;1273;22551;-79
2023/10/18 10:36:14;;;;;;;;;;;;;;;11.93;55.35;98943.18;136728;1266;22542;-82
2023/10/18 10:39:17;;;;;;;;;;;;;;;12.10;55.80;98936.52;136545;1272;23175;-82
2023/10/18 10:42:28;;;;;;;;;;;;;;;12.27;55.25;98934.58;136530;1273;24957;-77
2023/10/18 10:45:32;;;;;;;;;;;;;;;12.38;54.57;98929.23;136432;1273;23190;-82
2023/10/18 10:48:45;;;;;;;;;;;;;;;12.47;53.89;98930.86;136361;1273;22474;-83
2023/10/18 10:51:55;;;;;;;;;;;;;;;12.42;53.23;98926.28;136526;1273;22553;-80
2023/10/18 10:55:01;;;;;;;;;;;;;;;12.42;53.69;98919.30;136524;1273;22873;-81
2023/10/18 10:58:15;;;;;;;;;;;;;;;12.43;53.85;98920.02;136401;1273;22549;-82
2023/10/18 11:01:31;;;;;;;;;;;;;;;12.44;52.80;98917.74;136503;1273;22523;-82
2023/10/18 11:04:46;;;;;;;;;;;;;;;12.41;52.42;98912.66;136385;1273;22569;-82
2023/10/18 11:07:48;;;;;;;;;;;;;;;12.31;51.19;98908.25;136359;1273;22551;-81
2023/10/18 11:10:51;;;;;;;;;;;;;;;12.25;51.97;98900.88;136471;1273;23015;-83
2023/10/18 11:13:53;;;;;;;;;;;;;;;12.26;52.76;98899.84;136439;1273;22979;-84
2023/10/18 11:16:56;;;;;;;;;;;;;;;12.36;52.93;98895.37;136310;1272;22594;-84
2023/10/18 11:20:12;;;;;;;;;;;;;;;12.52;52.87;98885.14;136634;1272;22522;-82
2023/10/18 11:23:15;;;;;;;;;;;;;;;12.56;52.33;98879.58;135205;1272;22577;-84
2023/10/18 11:26:24;;;;;;;;;;;;;;;12.61;52.72;98876.64;136957;1272;22532;-83
2023/10/18 11:29:26;;;;;;;;;;;;;;;12.63;52.06;98875.94;136980;1272;22932;-80
2023/10/18 11:32:29;;;;;;;;;;;;;;;12.67;52.28;98880.50;135186;1272;22583;-82
2023/10/18 11:35:42;;;;;;;;;;;;;;;12.72;51.84;98880.17;136559;1272;22541;-84
2023/10/18 11:39:07;;;;;;;;;;;;;;;12.77;51.69;98878.79;136639;1269;22559;-83
2023/10/18 11:42:10;;;;;;;;;;;;;;;12.84;51.89;98874.09;136551;1272;23001;-83
2023/10/18 11:45:15;;;;;;;;;;;;;;;12.84;50.62;98874.98;136415;1272;25421;-82
2023/10/18 11:48:17;;;;;;;;;;;;;;;12.70;50.63;98866.71;136447;1272;25521;-82
2023/10/18 11:51:20;;;;;;;;;;;;;;;12.61;50.62;98862.31;136534;1272;22567;-79
2023/10/18 11:54:23;;;;;;;;;;;;;;;12.59;51.37;98863.52;136400;1272;22505;-81
2023/10/18 11:57:25;;;;;;;;;;;;;;;12.66;51.70;98860.24;136345;1272;23025;-80
2023/10/18 12:00:35;;;;;;;;;;;;;;;12.82;51.71;98856.45;136358;1272;22581;-80
2023/10/18 12:03:38;;;;;;;;;;;;;;;12.84;50.65;98853.66;137293;1272;22583;-79
2023/10/18 12:06:41;;;;;;;;;;;;;;;12.75;50.67;98848.40;135722;1272;22482;-78
2023/10/18 12:09:45;;;;;;;;;;;;;;;12.75;50.57;98841.59;135574;1272;25134;-79
2023/10/18 12:12:49;;;;;;;;;;;;;;;12.70;50.06;98845.77;135000;1272;22888;-79
2023/10/18 12:15:53;;;;;;;;;;;;;;;12.64;50.75;98843.83;135197;1272;22687;-79
2023/10/18 12:18:56;;;;;;;;;;;;;;;12.59;50.27;98836.30;135311;1272;25708;-80
2023/10/18 12:22:00;;;;;;;;;;;;;;;12.51;50.98;98822.30;135269;1272;22494;-81
2023/10/18 12:25:02;;;;;;;;;;;;;;;12.59;51.57;98820.58;137272;1272;23020;-80
2023/10/18 12:28:12;;;;;;;;;;;;;;;12.68;51.05;98816.08;135291;1272;22528;-79
2023/10/18 12:31:16;;;;;;;;;;;;;;;12.72;51.00;98810.67;135336;1272;22513;-80
2023/10/18 12:34:21;;;;;;;;;;;;;;;12.69;50.26;98811.20;135319;1272;22483;-80
2023/10/18 12:37:25;;;;;;;;;;;;;;;12.59;50.03;98807.67;135458;1272;22565;-80
2023/10/18 12:40:41;;;;;;;;;;;;;;;12.42;49.85;98804.48;136924;1272;22559;-79
2023/10/18 12:43:45;;;;;;;;;;;;;;;12.32;50.21;98795.52;135653;1272;22978;-79
2023/10/18 12:46:50;;;;;;;;;;;;;;;12.29;51.11;98789.23;135524;1272;22550;-81
2023/10/18 12:49:53;;;;;;;;;;;;;;;12.31;50.66;98785.92;135969;1272;25166;-80
2023/10/18 12:53:16;;;;;;;;;;;;;;;12.28;51.61;98782.60;135525;1272;23052;-80
2023/10/18 12:56:23;;;;;;;;;;;;;;;12.39;51.91;98782.29;135515;1272;22535;-78
2023/10/18 12:59:37;;;;;;;;;;;;;;;12.44;52.05;98776.91;135286;1272;22650;-79
2023/10/18 13:05:59;;;;;;;;;;;;;;;12.34;51.34;98773.38;135133;1272;23212;-78
2023/10/18 13:09:18;;;;;;;;;;;;;;;12.29;52.26;98769.88;135174;1266;22534;-79
2023/10/18 13:12:23;;;;;;;;;;;;;;;12.34;52.46;98770.77;135247;1272;22516;-78
2023/10/18 13:15:26;;;;;;;;;;;;;;;12.35;52.78;98771.98;135187;1272;24280;-79
2023/10/18 13:18:29;;;;;;;;;;;;;;;12.40;52.93;98766.60;135024;1272;26454;-79
2023/10/18 13:21:31;;;;;;;;;;;;;;;12.44;52.55;98762.59;134986;1272;23841;-78
2023/10/18 13:24:34;;;;;;;;;;;;;;;12.46;52.76;98756.14;135051;1264;22928;-78
2023/10/18 13:27:38;;;;;;;;;;;;;;;12.46;52.91;98749.51;135707;1272;22608;-78
2023/10/18 13:30:43;;;;;;;;;;;;;;;12.46;52.92;98749.51;134902;1272;22531;-77
2023/10/18 13:33:46;;;;;;;;;;;;;;;12.42;53.25;98752.29;135272;1272;22543;-80
2023/10/18 13:36:48;;;;;;;;;;;;;;;12.43;53.63;98746.54;135321;1272;22958;-83
2023/10/18 13:39:52;;;;;;;;;;;;;;;12.47;53.29;98740.44;135434;1272;22538;-81
2023/10/18 13:42:56;;;;;;;;;;;;;;;12.46;53.75;98733.63;135389;1272;25178;-79
2023/10/18 13:45:58;;;;;;;;;;;;;;;12.41;52.90;98733.44;135484;1272;22504;-78
2023/10/18 13:49:01;;;;;;;;;;;;;;;12.34;53.09;98732.02;135439;1272;26086;-78
2023/10/18 13:52:05;;;;;;;;;;;;;;;12.32;53.07;98726.27;136729;1272;22751;-80
2023/10/18 13:55:07;;;;;;;;;;;;;;;12.29;53.11;98724.16;136893;1272;22531;-80
2023/10/18 13:58:10;;;;;;;;;;;;;;;12.17;53.16;98724.28;135458;1269;23096;-80
2023/10/18 14:01:14;;;;;;;;;;;;;;;12.12;53.57;98720.23;135621;1272;22532;-80
2023/10/18 14:04:24;;;;;;;;;;;;;;;12.09;52.82;98722.14;135589;1271;22545;-80
2023/10/18 14:07:28;;;;;;;;;;;;;;;12.01;53.53;98715.14;135559;1272;22716;-80
2023/10/18 14:10:35;;;;;;;;;;;;;;;11.97;53.37;98717.20;135616;1272;22534;-80
2023/10/18 14:13:38;;;;;;;;;;;;;;;11.95;54.15;98716.33;135736;1272;22516;-81
2023/10/18 14:16:41;;;;;;;;;;;;;;;11.96;54.29;98713.02;135597;1272;24186;-80
2023/10/18 14:19:44;;;;;;;;;;;;;;;11.95;54.05;98711.44;135679;1272;23020;-80
2023/10/18 14:22:49;;;;;;;;;;;;;;;11.89;54.26;98711.77;135559;1272;22544;-79
2023/10/18 14:25:53;;;;;;;;;;;;;;;11.83;53.64;98709.65;136415;1272;22515;-80
2023/10/18 14:28:58;;;;;;;;;;;;;;;11.72;53.56;98713.23;135509;1272;22522;-79
2023/10/18 14:32:02;;;;;;;;;;;;;;;11.64;54.34;98707.42;135735;1272;22532;-80
2023/10/18 14:35:05;;;;;;;;;;;;;;;11.57;54.60;98704.07;135616;1272;22493;-79
2023/10/18 14:38:08;;;;;;;;;;;;;;;11.50;54.88;98696.02;135586;1272;22998;-79
2023/10/18 14:41:13;;;;;;;;;;;;;;;11.42;55.24;98693.36;135620;1272;22529;-83
2023/10/18 14:44:16;;;;;;;;;;;;;;;11.36;55.60;98695.59;136422;1272;25908;-79
2023/10/18 14:47:18;;;;;;;;;;;;;;;11.29;56.06;98688.56;135874;1272;22591;-79
2023/10/18 14:50:21;;;;;;;;;;;;;;;11.20;56.33;98684.83;135726;1272;22507;-79
2023/10/18 14:53:23;;;;;;;;;;;;;;;11.13;56.78;98684.27;135670;1272;22540;-78
2023/10/18 14:56:26;;;;;;;;;;;;;;;11.07;58.08;98681.95;135670;1272;23715;-79
2023/10/18 14:59:28;;;;;;;;;;;;;;;10.97;58.14;98684.14;135635;1272;22515;-78
2023/10/18 15:02:31;;;;;;;;;;;;;;;10.82;60.48;98680.71;135570;1272;22514;-78
2023/10/18 15:05:34;;;;;;;;;;;;;;;10.59;62.06;98682.77;135674;1272;24863;-75
2023/10/18 15:08:37;;;;;;;;;;;;;;;10.30;62.68;98685.08;135660;1272;22565;-79
2023/10/18 15:11:39;;;;;;;;;;;;;;;10.01;63.71;98684.37;135649;1272;22521;-79
2023/10/18 15:14:42;;;;;;;;;;;;;;;9.70;64.81;98683.31;135729;1272;22851;-79
2023/10/18 15:17:45;;;;;;;;;;;;;;;9.41;65.67;98684.27;135697;1272;22559;-79
2023/10/18 15:20:47;;;;;;;;;;;;;;;9.16;66.60;98684.61;135651;1272;22582;-79
2023/10/18 15:23:50;;;;;;;;;;;;;;;8.95;67.68;98687.07;135576;1272;23038;-79
2023/10/18 15:26:52;;;;;;;;;;;;;;;8.73;69.13;98683.76;135635;1272;22551;-79
2023/10/18 15:29:55;;;;;;;;;;;;;;;8.49;69.52;98682.11;135709;1272;24164;-78
2023/10/18 15:32:58;;;;;;;;;;;;;;;8.25;70.16;98679.06;135615;1272;22584;-79
2023/10/18 15:36:01;;;;;;;;;;;;;;;8.04;71.03;98673.11;135680;1269;22522;-79
2023/10/18 15:39:08;;;;;;;;;;;;;;;7.82;71.75;98679.23;136141;1272;22482;-79
2023/10/18 15:42:11;;;;;;;;;;;;;;;7.58;72.85;98676.15;136687;1272;22577;-79
2023/10/18 15:45:17;;;;;;;;;;;;;;;7.43;73.32;98676.52;136738;1272;22500;-79
2023/10/18 15:48:20;;;;;;;;;;;;;;;7.24;73.98;98672.83;136807;1269;22515;-79
2023/10/18 15:51:23;;;;;;;;;;;;;;;7.06;74.70;98674.47;136419;1272;23261;-79
2023/10/18 15:54:25;;;;;;;;;;;;;;;6.89;75.33;98678.55;136378;1272;22532;-78